Time;durP1;ratioP1;P1;durP2;ratioP2;P2;SDS_P1;SDS_P2;PMS_P1;PMS_P2;Temp;Humidity;BMP_temperature;BMP_pressure;BME280_temperature;BME280_humidity;BME280_pressure;Samples;Min_cycle;Max_cycle;Signal;HPM_P1;HPM_P2
2024/01/10 00:02:18;;;;;;;8.18;3.30;;;-0.60;51.80;;;;;;5050996;28;20051;-74
2024/01/10 00:04:44;;;;;;;4.80;3.50;;;-0.60;51.60;;;;;;5052444;28;20056;-74
2024/01/10 00:07:10;;;;;;;5.10;3.45;;;-0.60;51.60;;;;;;5051442;28;20048;-74
2024/01/10 00:09:36;;;;;;;5.43;3.28;;;-0.60;51.60;;;;;;5052333;28;20047;-74
2024/01/10 00:12:02;;;;;;;4.38;3.13;;;-0.60;51.80;;;;;;5049919;28;20123;-74
2024/01/10 00:14:28;;;;;;;4.78;2.97;;;-0.60;51.80;;;;;;5049740;28;20037;-74
2024/01/10 00:16:54;;;;;;;4.47;2.60;;;-0.60;51.90;;;;;;5051727;28;20040;-74
2024/01/10 00:19:20;;;;;;;6.07;3.05;;;-0.50;52.10;;;;;;5051107;28;20036;-74
2024/01/10 00:21:46;;;;;;;6.95;3.00;;;-0.60;52.70;;;;;;5051156;28;20046;-74
2024/01/10 00:24:12;;;;;;;2.83;1.90;;;-0.60;52.00;;;;;;5052017;28;20493;-74
2024/01/10 00:26:38;;;;;;;8.80;3.58;;;-0.60;52.10;;;;;;5051394;28;20037;-74
2024/01/10 00:29:04;;;;;;;12.15;4.13;;;-0.60;52.10;;;;;;5033865;28;20029;-74
2024/01/10 00:31:31;;;;;;;4.35;3.20;;;-0.60;52.20;;;;;;5032842;28;20035;-74
2024/01/10 00:33:56;;;;;;;;;;;-0.60;52.10;;;;;;5052338;28;20116;-74
2024/01/10 00:36:22;;;;;;;8.07;3.65;;;-0.60;52.00;;;;;;5033570;28;19923;-74
2024/01/10 00:38:48;;;;;;;7.07;2.95;;;-0.60;52.10;;;;;;5049911;28;20049;-74
2024/01/10 00:41:14;;;;;;;4.93;2.97;;;-0.60;52.30;;;;;;5049742;28;20486;-73
2024/01/10 00:43:41;;;;;;;11.15;3.05;;;-0.60;52.30;;;;;;5050186;28;20094;-74
2024/01/10 00:46:07;;;;;;;1.23;1.08;;;-0.60;52.00;;;;;;5050089;28;20025;-74
2024/01/10 00:48:34;;;;;;;;;;;-0.60;52.30;;;;;;5050724;28;20123;-74
2024/01/10 00:51:00;;;;;;;5.45;3.25;;;-0.60;52.30;;;;;;5050916;28;19928;-74
2024/01/10 00:53:26;;;;;;;;;;;-0.60;52.70;;;;;;5050589;28;20061;-74
2024/01/10 00:55:52;;;;;;;5.10;2.38;;;-0.60;52.60;;;;;;5049517;28;19916;-74
2024/01/10 00:58:18;;;;;;;5.85;3.17;;;-0.60;52.70;;;;;;5049903;28;20053;-74
2024/01/10 01:00:44;;;;;;;;;;;-0.50;52.90;;;;;;5051004;28;20056;-74
2024/01/10 01:03:10;;;;;;;3.08;1.58;;;-0.60;52.50;;;;;;5051331;28;19924;-74
2024/01/10 01:05:36;;;;;;;7.45;3.28;;;-0.60;52.60;;;;;;5050054;28;20029;-74
2024/01/10 01:08:02;;;;;;;;;;;-0.60;52.80;;;;;;5050355;28;20068;-74
2024/01/10 01:10:28;;;;;;;4.28;2.40;;;-0.50;52.90;;;;;;5050756;28;20304;-74
2024/01/10 01:12:55;;;;;;;6.55;2.05;;;-0.60;53.00;;;;;;5050624;28;20040;-74
2024/01/10 01:15:21;;;;;;;;;;;-0.50;53.10;;;;;;5050914;28;20026;-74
2024/01/10 01:17:47;;;;;;;5.72;3.47;;;-0.50;52.70;;;;;;5049639;28;20391;-75
2024/01/10 01:20:13;;;;;;;8.05;4.35;;;-0.60;52.80;;;;;;5050341;28;20432;-74
2024/01/10 01:22:39;;;;;;;6.82;4.28;;;-0.60;52.90;;;;;;5051328;28;20116;-74
2024/01/10 01:25:05;;;;;;;4.35;2.22;;;-0.50;53.10;;;;;;5050504;28;20091;-74
2024/01/10 01:27:31;;;;;;;6.10;3.22;;;-0.50;53.20;;;;;;5054490;28;20033;-74
2024/01/10 01:29:58;;;;;;;5.63;2.10;;;-0.50;53.30;;;;;;5036578;28;20037;-74
2024/01/10 01:32:24;;;;;;;5.60;2.58;;;-0.50;53.20;;;;;;5052466;28;20029;-73
2024/01/10 01:34:50;;;;;;;4.18;1.63;;;-0.50;53.50;;;;;;5055182;28;20040;-74
2024/01/10 01:37:16;;;;;;;4.03;2.05;;;-0.50;53.60;;;;;;5052726;28;20041;-74
2024/01/10 01:39:42;;;;;;;3.05;2.22;;;-0.50;53.50;;;;;;5053531;28;20041;-74
2024/01/10 01:42:08;;;;;;;9.57;3.85;;;-0.50;53.70;;;;;;5053972;28;20041;-73
2024/01/10 01:44:34;;;;;;;6.50;2.55;;;-0.50;53.60;;;;;;5053134;28;20029;-74
2024/01/10 01:47:01;;;;;;;9.80;2.53;;;-0.50;53.50;;;;;;5054308;28;20033;-74
2024/01/10 01:49:28;;;;;;;3.30;2.20;;;-0.40;53.70;;;;;;5046347;28;20041;-74
2024/01/10 01:51:55;;;;;;;11.85;3.60;;;-0.40;53.70;;;;;;5052710;28;20041;-74
2024/01/10 01:54:22;;;;;;;6.63;4.03;;;-0.40;53.70;;;;;;5036027;28;20033;-74
2024/01/10 01:56:49;;;;;;;6.88;3.42;;;-0.40;53.80;;;;;;5052607;28;20025;-74
2024/01/10 01:59:16;;;;;;;6.15;3.03;;;-0.40;53.70;;;;;;5036077;28;20049;-74
2024/01/10 02:01:42;;;;;;;4.53;2.13;;;-0.40;53.80;;;;;;5035251;28;20033;-74
2024/01/10 02:04:08;;;;;;;3.65;2.92;;;-0.40;53.90;;;;;;5054319;28;20033;-74
2024/01/10 02:06:34;;;;;;;6.20;3.95;;;-0.40;53.80;;;;;;5036013;28;20032;-74
2024/01/10 02:09:00;;;;;;;4.53;1.75;;;-0.50;53.80;;;;;;5035879;28;20069;-74
2024/01/10 02:11:27;;;;;;;1.63;1.40;;;-0.40;54.00;;;;;;5053267;28;20037;-74
2024/01/10 02:13:56;;;;;;;6.53;2.15;;;-0.50;54.20;;;;;;5053883;28;20052;-74
2024/01/10 02:16:22;;;;;;;5.13;3.35;;;-0.50;54.10;;;;;;5052123;28;20033;-73
2024/01/10 02:18:50;;;;;;;3.50;1.52;;;-0.50;54.40;;;;;;5053985;28;20389;-74
2024/01/10 02:21:20;;;;;;;2.97;2.08;;;-0.50;53.90;;;;;;5052572;28;20041;-74
2024/01/10 02:23:46;;;;;;;2.92;1.48;;;-0.60;54.50;;;;;;5033611;28;20037;-74
2024/01/10 02:26:12;;;;;;;4.68;1.63;;;-0.60;54.70;;;;;;5052162;28;20029;-74
2024/01/10 02:28:38;;;;;;;6.30;3.45;;;-0.60;54.60;;;;;;5053664;28;20510;-74
2024/01/10 02:31:04;;;;;;;4.13;2.58;;;-0.60;54.80;;;;;;5052735;28;20056;-74
2024/01/10 02:33:32;;;;;;;4.97;2.30;;;-0.60;55.00;;;;;;5051793;28;20048;-74
2024/01/10 02:35:58;;;;;;;5.47;3.28;;;-0.60;54.70;;;;;;5053315;28;20075;-74
2024/01/10 02:38:24;;;;;;;6.63;3.33;;;-0.60;54.80;;;;;;5051352;28;20498;-74
2024/01/10 02:40:50;;;;;;;5.20;2.92;;;-0.60;54.70;;;;;;5044963;28;20044;-74
2024/01/10 02:43:16;;;;;;;;;;;-0.70;54.70;;;;;;5052706;28;20099;-74
2024/01/10 02:45:42;;;;;;;3.35;1.92;;;-0.70;54.70;;;;;;5052843;28;19916;-74
2024/01/10 02:48:08;;;;;;;;;;;-0.70;54.70;;;;;;5053654;28;20363;-74
2024/01/10 02:50:34;;;;;;;2.47;1.38;;;-0.70;54.80;;;;;;5052427;28;19974;-73
2024/01/10 02:53:00;;;;;;;4.70;1.65;;;-0.70;54.60;;;;;;5035205;28;20036;-74
2024/01/10 02:55:26;;;;;;;2.17;1.10;;;-0.80;54.90;;;;;;5051715;28;20044;-74
2024/01/10 02:57:52;;;;;;;11.20;4.10;;;-0.80;54.90;;;;;;5052840;28;20091;-73
2024/01/10 03:00:18;;;;;;;5.28;2.35;;;-0.80;55.00;;;;;;5051305;28;20045;-73
2024/01/10 03:02:44;;;;;;;;;;;-0.80;54.80;;;;;;5051834;28;20056;-74
2024/01/10 03:05:10;;;;;;;2.53;1.50;;;-0.80;54.80;;;;;;5052973;28;20361;-74
2024/01/10 03:07:36;;;;;;;3.13;2.15;;;-0.80;55.00;;;;;;5035084;28;20082;-74
2024/01/10 03:10:03;;;;;;;6.10;1.90;;;-0.80;55.10;;;;;;5051427;28;20108;-74
2024/01/10 03:12:29;;;;;;;6.47;3.25;;;-0.80;55.10;;;;;;5051175;28;20033;-74
2024/01/10 03:14:56;;;;;;;2.08;1.10;;;-0.90;55.60;;;;;;5050807;28;20033;-74
2024/01/10 03:17:22;;;;;;;;;;;-0.90;55.60;;;;;;5051715;28;20485;-73
2024/01/10 03:19:48;;;;;;;2.78;2.25;;;-0.90;55.60;;;;;;5052876;28;19916;-73
2024/01/10 03:22:14;;;;;;;5.72;3.65;;;-0.90;55.60;;;;;;5051765;28;20143;-74
2024/01/10 03:24:40;;;;;;;4.28;1.70;;;-1.00;55.40;;;;;;5031474;28;20052;-74
2024/01/10 03:27:06;;;;;;;1.83;1.02;;;-0.90;55.80;;;;;;5051298;28;20033;-74
2024/01/10 03:29:32;;;;;;;11.25;3.30;;;-1.00;56.00;;;;;;5051410;28;20032;-74
2024/01/10 03:31:58;;;;;;;4.60;2.25;;;-0.90;56.20;;;;;;5051603;28;20041;-74
2024/01/10 03:34:25;;;;;;;4.75;2.45;;;-0.90;56.30;;;;;;5052253;28;20043;-74
2024/01/10 03:36:51;;;;;;;3.58;2.28;;;-1.00;56.10;;;;;;5052343;28;20065;-74
2024/01/10 03:39:17;;;;;;;7.18;2.83;;;-0.90;56.50;;;;;;5050501;28;20043;-74
2024/01/10 03:41:43;;;;;;;2.58;2.35;;;-0.90;56.50;;;;;;5050401;28;20037;-74
2024/01/10 03:44:09;;;;;;;5.60;2.45;;;-0.90;56.60;;;;;;5052067;28;20040;-74
2024/01/10 03:46:36;;;;;;;6.18;2.70;;;-0.90;56.60;;;;;;5034261;28;20032;-73
2024/01/10 03:49:02;;;;;;;11.65;3.83;;;-0.90;56.60;;;;;;5049781;28;20045;-74
2024/01/10 03:51:29;;;;;;;18.48;3.30;;;-0.90;56.40;;;;;;5051868;28;20420;-74
2024/01/10 03:53:55;;;;;;;7.10;3.63;;;-0.90;56.50;;;;;;5050754;28;20129;-74
2024/01/10 03:56:21;;;;;;;5.43;2.17;;;-0.90;56.50;;;;;;5051414;28;20047;-74
2024/01/10 03:58:50;;;;;;;5.43;2.53;;;-0.90;56.20;;;;;;5034054;28;20449;-74
2024/01/10 04:01:16;;;;;;;4.00;1.92;;;-0.90;56.20;;;;;;5051286;28;20045;-74
2024/01/10 04:03:42;;;;;;;5.15;2.10;;;-0.90;56.20;;;;;;5050667;28;20029;-74
2024/01/10 04:06:08;;;;;;;4.10;1.45;;;-0.90;56.20;;;;;;5051634;28;20044;-74
2024/01/10 04:08:35;;;;;;;3.75;2.65;;;-0.90;56.10;;;;;;5043677;28;20025;-74
2024/01/10 04:11:03;;;;;;;5.07;2.88;;;-0.90;55.90;;;;;;5051351;28;20132;-74
2024/01/10 04:13:29;;;;;;;2.50;1.73;;;-0.90;56.00;;;;;;5051874;28;20441;-74
2024/01/10 04:15:55;;;;;;;7.47;2.60;;;-1.00;56.00;;;;;;5050184;28;20055;-74
2024/01/10 04:18:21;;;;;;;3.40;2.45;;;-0.90;56.10;;;;;;5050308;28;20513;-74
2024/01/10 04:20:49;;;;;;;3.35;3.03;;;-0.90;56.00;;;;;;5050843;28;20079;-74
2024/01/10 04:23:15;;;;;;;2.75;1.42;;;-0.90;56.10;;;;;;5033943;28;20481;-74
2024/01/10 04:25:41;;;;;;;5.82;2.33;;;-1.00;56.10;;;;;;5051530;28;20032;-74
2024/01/10 04:28:07;;;;;;;3.60;2.35;;;-0.90;56.00;;;;;;5051640;28;20086;-74
2024/01/10 04:30:33;;;;;;;4.07;2.72;;;-0.90;56.00;;;;;;5049888;28;20040;-74
2024/01/10 04:32:59;;;;;;;6.50;3.25;;;-0.90;56.00;;;;;;5051195;28;20041;-74
2024/01/10 04:35:25;;;;;;;3.13;1.98;;;-1.00;55.90;;;;;;5050202;28;20039;-74
2024/01/10 04:37:51;;;;;;;;;;;-1.00;55.10;;;;;;5034451;28;20040;-74
2024/01/10 04:40:17;;;;;;;6.03;3.72;;;-1.00;55.70;;;;;;5050731;28;20297;-74
2024/01/10 04:42:44;;;;;;;3.63;1.80;;;-1.00;55.90;;;;;;5051475;28;20041;-74
2024/01/10 04:45:10;;;;;;;8.98;3.67;;;-1.00;56.70;;;;;;5049924;28;20037;-74
2024/01/10 04:47:36;;;;;;;1.25;0.75;;;-0.90;56.00;;;;;;5033426;28;20029;-74
2024/01/10 04:50:03;;;;;;;6.22;1.55;;;-0.90;56.50;;;;;;5051314;28;20095;-74
2024/01/10 04:52:29;;;;;;;7.45;4.35;;;-0.90;55.80;;;;;;5050883;28;20037;-74
2024/01/10 04:54:55;;;;;;;6.20;3.80;;;-0.90;56.30;;;;;;5033290;28;20037;-74
2024/01/10 04:57:21;;;;;;;4.38;2.42;;;-0.90;56.10;;;;;;5049994;28;20424;-74
2024/01/10 04:59:47;;;;;;;8.15;3.55;;;-1.00;56.10;;;;;;5051471;28;20051;-74
2024/01/10 05:02:15;;;;;;;7.07;4.13;;;-1.00;56.30;;;;;;5054777;28;20044;-74
2024/01/10 05:04:41;;;;;;;5.45;2.63;;;-1.00;56.30;;;;;;5055079;28;20037;-74
2024/01/10 05:07:07;;;;;;;;;;;-1.00;56.50;;;;;;5054387;28;20063;-74
2024/01/10 05:09:33;;;;;;;5.68;2.25;;;-1.00;56.40;;;;;;5054859;28;19921;-74
2024/01/10 05:11:59;;;;;;;;;;;-1.00;56.60;;;;;;5053791;28;20037;-74
2024/01/10 05:14:25;;;;;;;2.78;1.83;;;-1.10;56.80;;;;;;5053860;28;19932;-74
2024/01/10 05:16:53;;;;;;;4.85;3.47;;;-1.10;56.90;;;;;;5054441;28;20037;-74
2024/01/10 05:19:19;;;;;;;11.10;3.40;;;-1.10;57.00;;;;;;5053557;28;20045;-74
2024/01/10 05:21:45;;;;;;;6.15;3.50;;;-1.10;57.20;;;;;;5054047;28;20081;-74
2024/01/10 05:24:12;;;;;;;4.20;2.83;;;-1.20;57.10;;;;;;5055048;28;20041;-74
2024/01/10 05:26:38;;;;;;;10.52;3.33;;;-1.20;57.00;;;;;;5054690;28;20029;-74
2024/01/10 05:29:04;;;;;;;8.27;3.33;;;-1.10;57.00;;;;;;5036191;28;20393;-74
2024/01/10 05:31:30;;;;;;;8.98;2.08;;;-1.10;57.00;;;;;;5053134;28;20037;-74
2024/01/10 05:33:56;;;;;;;9.38;1.70;;;-1.10;57.00;;;;;;5052908;28;20095;-74
2024/01/10 05:36:23;;;;;;;5.30;2.80;;;-1.10;57.10;;;;;;5053472;28;20029;-74
2024/01/10 05:38:49;;;;;;;5.45;2.75;;;-1.20;57.00;;;;;;5053192;28;20041;-74
2024/01/10 05:41:15;;;;;;;3.30;2.20;;;-1.20;57.10;;;;;;5053755;28;20037;-74
2024/01/10 05:43:43;;;;;;;3.78;2.60;;;-1.30;58.00;;;;;;5054802;28;20029;-74
2024/01/10 05:46:10;;;;;;;12.27;5.13;;;-1.40;57.10;;;;;;5036307;28;20064;-74
2024/01/10 05:48:37;;;;;;;13.95;6.20;;;-1.50;57.10;;;;;;5036553;28;20040;-74
2024/01/10 05:51:03;;;;;;;11.27;3.83;;;-1.60;57.30;;;;;;5051855;28;20055;-74
2024/01/10 05:53:29;;;;;;;7.13;3.00;;;-1.70;57.10;;;;;;5053013;28;20381;-74
2024/01/10 05:55:55;;;;;;;5.53;2.58;;;-1.80;57.90;;;;;;5052926;28;20370;-74
2024/01/10 05:58:21;;;;;;;6.53;2.83;;;-1.80;58.10;;;;;;5053661;28;20044;-74
2024/01/10 06:00:47;;;;;;;4.18;3.28;;;-1.90;58.30;;;;;;5035736;28;20037;-74
2024/01/10 06:03:13;;;;;;;;;;;-1.90;58.40;;;;;;5036241;28;20082;-74
2024/01/10 06:05:40;;;;;;;5.22;2.65;;;-2.00;58.40;;;;;;5052694;28;20405;-74
2024/01/10 06:08:06;;;;;;;4.00;3.13;;;-2.00;58.60;;;;;;5053891;28;20486;-74
2024/01/10 06:10:32;;;;;;;4.22;2.53;;;-2.00;58.40;;;;;;5053140;28;20037;-74
2024/01/10 06:12:58;;;;;;;13.50;4.07;;;-2.00;59.00;;;;;;5053204;28;20044;-74
2024/01/10 06:15:25;;;;;;;7.28;3.72;;;-1.90;59.10;;;;;;5053583;28;20037;-74
2024/01/10 06:17:51;;;;;;;8.05;5.25;;;-1.90;58.80;;;;;;5052472;28;20041;-74
2024/01/10 06:20:18;;;;;;;7.93;3.50;;;-1.80;58.60;;;;;;5053117;28;20402;-74
2024/01/10 06:22:46;;;;;;;6.28;3.78;;;-1.80;59.40;;;;;;5053581;28;20029;-74
2024/01/10 06:25:12;;;;;;;7.18;4.65;;;-1.70;58.60;;;;;;5053633;28;20036;-74
2024/01/10 06:27:39;;;;;;;5.35;2.10;;;-1.70;58.00;;;;;;5053353;28;20039;-74
2024/01/10 06:30:07;;;;;;;4.85;2.33;;;-1.70;58.60;;;;;;5031806;28;20040;-74
2024/01/10 06:32:33;;;;;;;8.43;5.18;;;-1.70;58.60;;;;;;5052701;28;20032;-74
2024/01/10 06:35:01;;;;;;;5.57;2.92;;;-1.60;58.70;;;;;;5035232;28;20410;-74
2024/01/10 06:37:28;;;;;;;3.20;2.38;;;-1.60;58.70;;;;;;5053271;28;20036;-74
2024/01/10 06:39:54;;;;;;;2.75;1.50;;;-1.70;58.60;;;;;;5052052;28;20051;-74
2024/01/10 06:42:20;;;;;;;3.90;2.63;;;-1.60;58.80;;;;;;5052634;28;20052;-74
2024/01/10 06:44:46;;;;;;;10.52;3.65;;;-1.60;58.80;;;;;;5053627;28;20086;-74
2024/01/10 06:47:14;;;;;;;5.90;5.07;;;-1.60;58.80;;;;;;5053094;28;20094;-74
2024/01/10 06:49:40;;;;;;;5.50;2.17;;;-1.50;59.00;;;;;;5053368;28;20435;-74
2024/01/10 06:52:07;;;;;;;6.75;3.83;;;-1.50;59.00;;;;;;5052484;28;20029;-74
2024/01/10 06:54:35;;;;;;;6.32;2.47;;;-1.50;59.10;;;;;;5051313;28;20051;-74
2024/01/10 06:57:01;;;;;;;5.78;3.72;;;-1.50;58.90;;;;;;5053069;28;20033;-73
2024/01/10 06:59:27;;;;;;;6.18;3.15;;;-1.50;59.00;;;;;;5051509;28;20132;-74
2024/01/10 07:01:55;;;;;;;7.93;4.72;;;-1.40;58.90;;;;;;5052026;28;20112;-74
2024/01/10 07:04:23;;;;;;;7.63;5.00;;;-1.50;59.10;;;;;;5051523;28;20025;-74
2024/01/10 07:06:50;;;;;;;7.57;3.03;;;-1.50;59.00;;;;;;5052657;28;20039;-73
2024/01/10 07:09:19;;;;;;;5.20;3.30;;;-1.40;59.00;;;;;;5051826;28;20055;-74
2024/01/10 07:12:04;;;;;;;6.80;4.60;;;-1.40;59.00;;;;;;5051809;28;20404;-74
2024/01/10 07:14:30;;;;;;;12.68;7.15;;;-1.40;58.70;;;;;;5052995;28;20527;-73
2024/01/10 07:16:56;;;;;;;7.00;2.78;;;-1.40;59.10;;;;;;5052267;28;20075;-74
2024/01/10 07:19:23;;;;;;;;;;;-1.30;59.80;;;;;;5051913;28;20044;-74
2024/01/10 07:21:50;;;;;;;3.97;2.17;;;-1.30;58.90;;;;;;5051448;28;19966;-74
2024/01/10 07:24:16;;;;;;;;;;;-1.30;59.10;;;;;;5051843;28;20037;-74
2024/01/10 07:26:42;;;;;;;13.75;5.05;;;-1.30;59.00;;;;;;5051010;28;19923;-74
2024/01/10 07:29:08;;;;;;;7.50;3.47;;;-1.30;58.90;;;;;;5050990;28;20040;-74
2024/01/10 07:31:35;;;;;;;9.10;5.38;;;-1.30;59.10;;;;;;5050599;28;20079;-73
2024/01/10 07:34:04;;;;;;;4.85;3.47;;;-1.20;59.00;;;;;;5034106;28;20041;-73
2024/01/10 07:36:33;;;;;;;4.18;3.05;;;-1.10;59.20;;;;;;5051016;28;20036;-74
2024/01/10 07:39:18;;;;;;;6.07;3.78;;;-1.10;58.90;;;;;;5050973;28;20037;-74
2024/01/10 07:41:45;;;;;;;8.93;2.42;;;-1.00;58.60;;;;;;5050210;28;20037;-74
2024/01/10 07:44:11;;;;;;;4.78;2.72;;;-1.00;58.40;;;;;;5034208;28;20107;-74
2024/01/10 07:46:38;;;;;;;11.27;5.43;;;-1.00;58.00;;;;;;5050577;28;20025;-74
2024/01/10 07:49:05;;;;;;;8.45;5.28;;;-0.90;57.90;;;;;;5052057;28;20043;-74
2024/01/10 07:51:32;;;;;;;7.00;3.45;;;-0.90;58.40;;;;;;5050339;28;20502;-74
2024/01/10 07:53:59;;;;;;;6.28;3.55;;;-0.90;58.30;;;;;;5050132;28;20043;-74
2024/01/10 07:56:25;;;;;;;4.43;2.67;;;-0.80;58.10;;;;;;5051850;28;20021;-74
2024/01/10 07:58:51;;;;;;;5.43;2.90;;;-0.70;58.20;;;;;;5030555;28;20427;-74
2024/01/10 08:01:18;;;;;;;6.13;2.38;;;-0.70;58.00;;;;;;5049396;28;20048;-74
2024/01/10 08:03:45;;;;;;;2.97;1.55;;;-0.60;57.80;;;;;;5052096;28;20037;-74
2024/01/10 08:06:12;;;;;;;3.35;2.60;;;-0.50;57.80;;;;;;5033465;28;20091;-74
2024/01/10 08:08:38;;;;;;;6.13;2.90;;;-0.40;57.30;;;;;;5050790;28;20413;-74
2024/01/10 08:11:05;;;;;;;;;;;-0.50;57.10;;;;;;5033485;28;20056;-74
2024/01/10 08:13:31;;;;;;;8.80;3.50;;;-0.40;56.70;;;;;;5042559;28;20290;-74
2024/01/10 08:15:57;;;;;;;;;;;-0.40;56.70;;;;;;5067689;28;20423;-74
2024/01/10 08:18:23;;;;;;;4.40;2.03;;;-0.30;57.00;;;;;;5066734;28;19974;-74
2024/01/10 08:20:49;;;;;;;10.10;3.70;;;-0.30;56.60;;;;;;5051589;28;20087;-74
2024/01/10 08:23:15;;;;;;;3.83;2.70;;;-0.30;56.60;;;;;;5050100;28;20037;-74
2024/01/10 08:25:43;;;;;;;4.05;1.40;;;-0.30;56.80;;;;;;5050321;28;20490;-74
2024/01/10 08:28:10;;;;;;;6.07;3.00;;;-0.20;56.70;;;;;;5051915;28;20033;-74
2024/01/10 08:30:36;;;;;;;7.50;4.38;;;0.00;56.60;;;;;;5050615;28;20060;-74
2024/01/10 08:33:04;;;;;;;2.70;1.98;;;0.20;55.80;;;;;;5051765;28;20087;-74
2024/01/10 08:35:30;;;;;;;5.63;3.65;;;0.30;55.70;;;;;;5052884;28;20029;-74
2024/01/10 08:37:56;;;;;;;7.05;3.72;;;0.40;55.40;;;;;;5054425;28;20034;-74
2024/01/10 08:40:25;;;;;;;3.30;2.13;;;0.40;55.20;;;;;;5053641;28;20041;-74
2024/01/10 08:42:52;;;;;;;4.90;2.97;;;0.50;55.00;;;;;;5054672;28;20076;-74
2024/01/10 08:45:18;;;;;;;5.93;2.72;;;0.60;54.80;;;;;;5054228;28;20044;-73
2024/01/10 08:47:45;;;;;;;4.00;2.47;;;0.50;54.50;;;;;;5055285;28;20041;-74
2024/01/10 08:50:11;;;;;;;6.60;2.00;;;0.50;54.80;;;;;;5054794;28;20037;-74
2024/01/10 08:52:37;;;;;;;6.03;4.07;;;0.40;54.90;;;;;;5054917;28;20044;-74
2024/01/10 08:55:23;;;;;;;;;;;0.50;55.20;;;;;;5055575;28;20040;-74
2024/01/10 08:57:49;;;;;;;6.20;2.65;;;0.50;54.50;;;;;;5055452;28;20385;-74
2024/01/10 09:00:16;;;;;;;7.30;3.38;;;0.60;54.70;;;;;;5053382;28;20128;-74
2024/01/10 09:02:42;;;;;;;4.20;2.45;;;0.50;54.20;;;;;;5054037;28;20028;-74
2024/01/10 09:05:09;;;;;;;3.38;2.15;;;0.50;54.00;;;;;;5054589;28;20504;-73
2024/01/10 09:07:37;;;;;;;4.93;2.72;;;0.60;54.30;;;;;;5053732;28;20025;-73
2024/01/10 09:10:05;;;;;;;3.67;2.35;;;0.70;53.90;;;;;;5054392;28;20082;-74
2024/01/10 09:12:31;;;;;;;12.93;4.60;;;0.80;53.60;;;;;;5053610;28;20033;-74
2024/01/10 09:14:57;;;;;;;;;;;1.00;53.70;;;;;;5037449;28;20098;-74
2024/01/10 09:17:23;;;;;;;7.72;2.40;;;1.00;53.50;;;;;;5036798;28;20349;-74
2024/01/10 09:19:50;;;;;;;3.28;2.70;;;1.10;53.10;;;;;;5035305;28;20132;-74
2024/01/10 09:22:16;;;;;;;6.30;4.45;;;1.10;52.60;;;;;;5054455;28;20392;-74
2024/01/10 09:24:42;;;;;;;4.90;2.58;;;1.10;52.90;;;;;;5054775;28;20033;-74
2024/01/10 09:27:08;;;;;;;3.35;2.60;;;1.20;52.80;;;;;;5036847;28;20100;-74
2024/01/10 09:29:35;;;;;;;10.25;2.75;;;1.30;52.70;;;;;;5054429;28;20490;-74
2024/01/10 09:32:01;;;;;;;5.45;3.08;;;1.30;52.40;;;;;;5052575;28;20401;-74
2024/01/10 09:34:27;;;;;;;7.90;3.67;;;1.40;52.10;;;;;;5036947;28;20474;-73
2024/01/10 09:36:53;;;;;;;6.75;3.78;;;1.40;52.10;;;;;;5054272;28;20048;-73
2024/01/10 09:39:19;;;;;;;8.82;3.65;;;1.40;51.80;;;;;;5053284;28;20082;-74
2024/01/10 09:41:48;;;;;;;5.20;3.50;;;1.40;51.50;;;;;;5035945;28;20037;-74
2024/01/10 09:47:02;;;;;;;5.15;3.10;;;1.40;51.30;;;;;;5051930;28;20513;-74
2024/01/10 09:49:28;;;;;;;6.68;4.00;;;1.30;51.30;;;;;;5036660;28;20029;-74
2024/01/10 09:52:02;;;;;;;3.45;1.98;;;1.40;51.60;;;;;;5053863;28;20036;-74
2024/01/10 09:54:31;;;;;;;2.70;1.92;;;1.40;51.50;;;;;;5045381;28;20037;-74
2024/01/10 09:56:58;;;;;;;7.32;2.97;;;1.40;51.30;;;;;;5052843;28;20112;-73
2024/01/10 09:59:24;;;;;;;5.18;2.90;;;1.40;50.80;;;;;;5052373;28;20057;-74
2024/01/10 10:01:53;;;;;;;4.65;1.95;;;1.50;51.20;;;;;;5032676;28;20388;-74
2024/01/10 10:04:21;;;;;;;4.15;3.08;;;1.60;50.70;;;;;;5053603;28;20080;-74
2024/01/10 10:06:47;;;;;;;7.05;3.60;;;1.70;51.00;;;;;;5053520;28;20021;-74
2024/01/10 10:09:14;;;;;;;7.47;4.88;;;1.70;51.00;;;;;;5054096;28;20048;-73
2024/01/10 10:11:41;;;;;;;12.43;3.33;;;1.70;50.70;;;;;;5052001;28;20035;-74
2024/01/10 10:14:28;;;;;;;8.32;3.40;;;1.70;50.90;;;;;;5035893;28;20405;-74
2024/01/10 10:16:54;;;;;;;6.88;3.42;;;1.80;50.60;;;;;;5052665;28;20120;-73
2024/01/10 10:19:39;;;;;;;6.50;3.25;;;1.90;50.00;;;;;;5035572;28;20116;-73
2024/01/10 10:22:09;;;;;;;8.38;4.70;;;1.90;48.80;;;;;;5053355;28;20044;-73
2024/01/10 10:24:35;;;;;;;9.98;3.70;;;1.90;48.60;;;;;;5044104;28;20078;-74
2024/01/10 10:27:01;;;;;;;6.75;4.15;;;2.10;49.30;;;;;;5053780;28;20396;-74
2024/01/10 10:29:28;;;;;;;7.82;5.22;;;2.10;49.00;;;;;;5052284;28;20509;-74
2024/01/10 10:31:55;;;;;;;6.38;3.10;;;2.20;48.80;;;;;;5035208;28;20475;-73
2024/01/10 10:34:25;;;;;;;14.23;4.57;;;2.30;49.00;;;;;;5053545;28;20051;-74
2024/01/10 10:36:51;;;;;;;6.43;3.58;;;2.30;48.50;;;;;;5053156;28;20036;-74
2024/01/10 10:39:17;;;;;;;5.32;2.88;;;2.40;47.60;;;;;;5052011;28;20041;-73
2024/01/10 10:41:46;;;;;;;6.38;4.53;;;2.40;47.90;;;;;;5044845;28;20049;-73
2024/01/10 10:44:20;;;;;;;12.27;4.65;;;2.60;47.70;;;;;;5052149;28;20048;-73
2024/01/10 10:46:50;;;;;;;5.60;2.78;;;2.70;47.60;;;;;;5051847;28;20033;-74
2024/01/10 10:49:19;;;;;;;7.53;3.80;;;2.80;47.10;;;;;;5051800;28;20025;-73
2024/01/10 10:51:46;;;;;;;8.13;3.72;;;2.80;47.20;;;;;;5034671;28;20124;-73
2024/01/10 10:54:12;;;;;;;;;;;2.80;48.40;;;;;;5051866;28;20556;-74
2024/01/10 10:56:40;;;;;;;13.85;4.50;;;2.70;46.90;;;;;;5051779;28;19916;-73
2024/01/10 10:59:10;;;;;;;8.75;4.53;;;2.70;47.10;;;;;;5051378;28;20103;-73
2024/01/10 11:01:36;;;;;;;6.97;4.40;;;2.80;47.30;;;;;;5052147;28;20439;-74
2024/01/10 11:04:03;;;;;;;15.10;5.88;;;2.80;46.80;;;;;;5035061;28;20056;-74
2024/01/10 11:06:30;;;;;;;7.20;3.20;;;3.00;46.30;;;;;;5051114;28;20059;-74
2024/01/10 11:09:18;;;;;;;10.50;4.90;;;3.20;45.60;;;;;;5068552;28;20033;-73
2024/01/10 11:12:29;;;;;;;9.85;6.32;;;3.30;45.50;;;;;;5050685;28;20033;-74
2024/01/10 11:15:20;;;;;;;8.93;4.00;;;3.40;45.40;;;;;;5052140;28;20090;-74
2024/01/10 11:18:42;;;;;;;7.45;3.33;;;3.50;45.70;;;;;;5051184;28;20083;-74
2024/01/10 11:21:32;;;;;;;5.40;3.17;;;3.80;45.20;;;;;;5045133;28;20037;-73
2024/01/10 11:24:02;;;;;;;8.73;6.35;;;4.10;44.10;;;;;;5052181;28;20123;-74
2024/01/10 11:26:28;;;;;;;11.05;6.43;;;4.10;43.80;;;;;;5051083;28;20037;-73
2024/01/10 11:28:57;;;;;;;11.02;6.13;;;4.10;44.00;;;;;;5052318;28;20047;-73
2024/01/10 11:31:50;;;;;;;10.55;6.60;;;4.00;43.80;;;;;;5033987;28;20056;-74
2024/01/10 11:34:16;;;;;;;13.43;5.13;;;3.90;43.80;;;;;;5044191;28;20024;-73
2024/01/10 11:37:21;;;;;;;9.18;4.85;;;3.80;44.10;;;;;;5050926;28;20051;-74
2024/01/10 11:39:47;;;;;;;11.00;3.90;;;3.80;44.40;;;;;;5049522;28;20044;-73
2024/01/10 11:42:23;;;;;;;13.30;4.88;;;3.90;44.50;;;;;;5050055;28;20154;-73
2024/01/10 11:44:51;;;;;;;7.13;4.07;;;4.00;44.20;;;;;;5051340;28;20128;-74
2024/01/10 11:47:19;;;;;;;6.18;4.00;;;4.10;43.80;;;;;;5051176;28;20034;-74
2024/01/10 11:50:07;;;;;;;5.68;2.92;;;4.70;42.90;;;;;;5034033;28;20044;-73
2024/01/10 11:52:35;;;;;;;8.68;3.58;;;5.30;40.80;;;;;;5045857;28;20037;-74
2024/01/10 11:55:03;;;;;;;5.95;3.65;;;5.80;40.20;;;;;;5049912;28;20448;-74
2024/01/10 11:57:32;;;;;;;7.30;4.85;;;5.90;39.90;;;;;;5034447;28;20055;-74
2024/01/10 12:00:05;;;;;;;7.35;3.20;;;6.30;40.50;;;;;;5050471;28;20087;-75
2024/01/10 12:02:32;;;;;;;6.53;2.75;;;6.20;39.30;;;;;;5050699;28;20049;-74
2024/01/10 12:04:58;;;;;;;5.00;3.67;;;6.90;38.50;;;;;;5050412;28;20033;-73
2024/01/10 12:07:25;;;;;;;4.65;1.95;;;7.20;38.00;;;;;;5042065;28;20089;-74
2024/01/10 12:09:51;;;;;;;6.32;2.45;;;7.50;37.50;;;;;;5050393;28;20055;-73
2024/01/10 12:12:18;;;;;;;8.07;4.82;;;7.70;37.10;;;;;;5033126;28;20040;-73
2024/01/10 12:14:44;;;;;;;;;;;7.50;36.00;;;;;;5051454;28;20033;-74
2024/01/10 12:17:10;;;;;;;4.53;3.40;;;7.10;36.00;;;;;;5051339;28;20328;-74
2024/01/10 12:19:37;;;;;;;5.00;2.17;;;6.80;36.50;;;;;;5050648;28;20032;-74
2024/01/10 12:22:05;;;;;;;8.15;3.45;;;6.60;36.00;;;;;;5051680;28;20065;-74
2024/01/10 12:24:32;;;;;;;5.70;2.33;;;6.30;37.00;;;;;;5050991;28;20029;-74
2024/01/10 12:26:58;;;;;;;4.95;1.98;;;6.20;37.20;;;;;;5050473;28;20044;-74
2024/01/10 12:29:25;;;;;;;;;;;6.20;37.80;;;;;;5052667;28;20037;-74
2024/01/10 12:31:51;;;;;;;4.63;3.23;;;6.30;37.80;;;;;;5029732;28;19939;-73
2024/01/10 12:34:18;;;;;;;6.47;3.53;;;6.10;36.60;;;;;;5050118;28;20045;-73
2024/01/10 12:36:44;;;;;;;2.95;1.63;;;6.20;37.90;;;;;;5050257;28;20386;-74
2024/01/10 12:39:11;;;;;;;;;;;6.50;37.30;;;;;;5052581;28;20546;-74
2024/01/10 12:41:37;;;;;;;5.80;3.25;;;6.50;37.30;;;;;;5050923;28;19928;-74
2024/01/10 12:44:06;;;;;;;5.82;2.03;;;6.40;37.50;;;;;;5050090;28;20037;-74
2024/01/10 12:46:32;;;;;;;4.88;3.05;;;6.40;37.60;;;;;;5051250;28;20033;-74
2024/01/10 12:49:03;;;;;;;9.27;2.80;;;6.60;37.10;;;;;;5051712;28;20033;-74
2024/01/10 12:51:31;;;;;;;6.30;3.15;;;6.50;36.50;;;;;;5050897;28;20071;-74
2024/01/10 12:53:59;;;;;;;9.05;3.38;;;6.30;37.20;;;;;;5050014;28;20037;-74
2024/01/10 12:56:26;;;;;;;14.23;4.53;;;6.60;37.40;;;;;;5049930;28;20086;-73
2024/01/10 12:58:52;;;;;;;9.23;3.33;;;6.70;37.30;;;;;;5042276;28;20107;-75
2024/01/10 13:01:18;;;;;;;3.47;2.88;;;6.70;36.40;;;;;;5049227;28;20064;-74